Time;durP1;ratioP1;P1;durP2;ratioP2;P2;SDS_P1;SDS_P2;PMS_P1;PMS_P2;Temp;Humidity;BMP_temperature;BMP_pressure;BME280_temperature;BME280_humidity;BME280_pressure;Samples;Min_cycle;Max_cycle;Signal;HPM_P1;HPM_P2
2023/07/10 18:43:03;;;;;;;7.55;3.15;;;;;;;;;;5069925;28;20595;-86
2023/07/10 18:45:29;;;;;;;5.63;2.40;;;;;;;;;;5059948;28;20187;-85
2023/07/10 18:47:55;;;;;;;3.53;2.75;;;;;;;;;;5059616;28;20196;-86
2023/07/10 18:50:21;;;;;;;9.00;4.35;;;;;;;;;;5051327;28;20179;-87
2023/07/10 18:52:47;;;;;;;5.80;3.17;;;;;;;;;;5048062;28;20180;-86
2023/07/10 18:55:18;;;;;;;5.15;3.28;;;22.30;68.40;;;;;;5033420;28;20189;-87
2023/07/10 18:57:45;;;;;;;6.93;3.38;;;;;;;;;;5055824;28;20213;-87
2023/07/10 19:00:22;;;;;;;4.82;3.20;;;22.60;60.50;;;;;;5059338;28;20175;-85
2023/07/10 19:02:48;;;;;;;7.22;3.75;;;22.50;62.10;;;;;;5059007;28;20214;-87
2023/07/10 19:05:13;;;;;;;18.83;4.45;;;22.30;62.20;;;;;;5055248;28;20668;-86
2023/07/10 19:07:39;;;;;;;6.35;3.78;;;21.90;83.60;;;;;;5059143;28;20195;-87
2023/07/10 19:10:10;;;;;;;8.98;4.40;;;22.20;63.50;;;;;;5058558;28;20660;-86
2023/07/10 19:12:35;;;;;;;7.22;4.22;;;22.20;64.10;;;;;;5088577;28;20220;-86
2023/07/10 19:15:01;;;;;;;8.30;4.43;;;;;;;;;;5057768;28;20187;-85
2023/07/10 19:17:28;;;;;;;8.80;4.18;;;;;;;;;;5058981;28;20210;-86
2023/07/10 19:19:53;;;;;;;7.03;4.15;;;21.60;82.40;;;;;;5040973;28;20239;-87
2023/07/10 19:22:19;;;;;;;10.25;6.50;;;21.90;68.90;;;;;;5058642;28;20212;-86
2023/07/10 19:24:45;;;;;;;9.75;5.18;;;21.90;69.40;;;;;;5060006;28;20191;-86
2023/07/10 19:27:11;;;;;;;11.07;5.72;;;21.80;69.30;;;;;;5060201;28;20698;-87
2023/07/10 19:29:36;;;;;;;8.85;5.32;;;21.70;70.00;;;;;;5058165;28;20183;-87
2023/07/10 19:32:13;;;;;;;12.05;5.95;;;21.60;70.60;;;;;;5059258;28;20305;-86
2023/07/10 19:34:38;;;;;;;12.63;6.13;;;21.50;71.30;;;;;;5054390;28;20175;-87
2023/07/10 19:37:05;;;;;;;12.93;6.65;;;21.40;72.40;;;;;;5043681;28;20182;-88
2023/07/10 19:39:31;;;;;;;10.73;5.68;;;21.30;73.40;;;;;;5062305;28;20210;-87
2023/07/10 19:41:59;;;;;;;14.10;6.72;;;21.20;75.00;;;;;;5061366;28;20252;-86
2023/07/10 19:44:42;;;;;;;14.13;7.18;;;21.00;76.70;;;;;;5064336;28;20184;-86
2023/07/10 19:47:13;;;;;;;12.48;6.47;;;21.00;77.40;;;;;;5062394;28;20184;-86
2023/07/10 19:49:38;;;;;;;11.13;6.68;;;20.70;89.80;;;;;;5058944;28;20254;-86
2023/07/10 19:52:13;;;;;;;13.77;6.80;;;20.80;95.00;;;;;;5060500;28;20214;-87
2023/07/10 19:54:40;;;;;;;14.50;7.15;;;20.80;80.90;;;;;;5047630;28;20176;-87
2023/07/10 19:57:29;;;;;;;15.02;7.22;;;20.80;83.20;;;;;;5048688;28;20190;-87
2023/07/10 19:59:55;;;;;;;12.98;6.95;;;20.70;84.80;;;;;;5043242;28;20393;-86
2023/07/10 20:02:21;;;;;;;8.55;4.90;;;20.60;93.20;;;;;;5041764;28;20578;-87
2023/07/10 20:04:47;;;;;;;8.68;4.80;;;20.20;92.90;;;;;;5028701;28;20173;-87
2023/07/10 20:07:14;;;;;;;7.22;4.03;;;20.40;87.40;;;;;;5044859;28;20547;-87
2023/07/10 20:09:40;;;;;;;11.07;4.63;;;20.30;88.60;;;;;;5047408;28;20637;-87
2023/07/10 20:12:21;;;;;;;8.02;3.63;;;19.80;97.60;;;;;;5032682;28;20196;-86
2023/07/10 20:14:48;;;;;;;9.65;4.68;;;20.20;91.80;;;;;;5054854;28;20179;-86
2023/07/10 20:17:32;;;;;;;9.85;4.60;;;20.00;94.30;;;;;;5056593;28;20204;-86
2023/07/10 20:19:58;;;;;;;7.30;4.05;;;20.20;93.70;;;;;;5056271;28;20157;-87
2023/07/10 20:22:25;;;;;;;13.55;4.57;;;20.10;93.80;;;;;;5043358;28;20643;-87
2023/07/10 20:24:51;;;;;;;10.73;5.07;;;20.10;94.70;;;;;;5080239;28;20168;-87
2023/07/10 20:27:17;;;;;;;6.10;3.75;;;19.80;99.90;;;;;;5061671;28;20176;-86
2023/07/10 20:29:43;;;;;;;7.82;3.72;;;19.70;99.90;;;;;;5064805;28;20171;-87
2023/07/10 20:32:13;;;;;;;8.13;4.20;;;19.80;97.60;;;;;;5079562;28;20187;-87
2023/07/10 20:34:45;;;;;;;10.25;5.32;;;19.80;98.80;;;;;;5061341;28;20239;-85
2023/07/10 20:37:10;;;;;;;8.30;5.05;;;19.80;99.90;;;;;;5055038;28;20222;-85
2023/07/10 20:39:36;;;;;;;6.75;4.97;;;19.70;99.90;;;;;;5055009;28;20632;-84
2023/07/10 20:42:03;;;;;;;7.10;3.90;;;19.70;99.90;;;;;;5036974;28;20239;-86
2023/07/10 20:44:28;;;;;;;5.63;4.03;;;19.60;99.90;;;;;;5055238;28;20226;-86
2023/07/10 20:46:56;;;;;;;9.20;4.93;;;19.60;99.90;;;;;;5053810;28;20179;-86
2023/07/10 20:49:24;;;;;;;6.35;4.05;;;19.60;99.90;;;;;;5055373;28;20620;-87
2023/07/10 20:51:50;;;;;;;6.32;3.90;;;19.50;99.90;;;;;;5055059;28;20183;-86
2023/07/10 20:54:18;;;;;;;7.10;4.30;;;19.50;99.90;;;;;;5055077;28;20778;-86
2023/07/10 20:56:48;;;;;;;7.40;4.15;;;19.50;99.90;;;;;;5054890;28;20241;-86
2023/07/10 20:59:19;;;;;;;13.77;4.85;;;19.40;99.90;;;;;;5054683;28;20255;-85
2023/07/10 21:01:45;;;;;;;16.58;4.75;;;19.40;99.90;;;;;;5054368;28;20210;-86
2023/07/10 21:04:11;;;;;;;6.70;4.25;;;19.30;99.90;;;;;;5052770;28;20188;-86
2023/07/10 21:06:37;;;;;;;7.38;4.45;;;19.30;99.90;;;;;;5052729;28;20647;-87
2023/07/10 21:09:18;;;;;;;9.13;4.90;;;19.20;99.90;;;;;;5053497;28;20184;-87
2023/07/10 21:11:43;;;;;;;8.00;4.70;;;19.10;99.90;;;;;;5054397;28;20194;-87
2023/07/10 21:14:12;;;;;;;7.03;4.50;;;19.20;99.90;;;;;;5036161;28;20660;-87
2023/07/10 21:16:38;;;;;;;7.93;4.45;;;19.10;99.90;;;;;;5054300;28;20678;-87
2023/07/10 21:19:24;;;;;;;7.72;4.20;;;19.10;99.90;;;;;;5052449;28;20180;-87
2023/07/10 21:21:51;;;;;;;9.90;4.43;;;19.00;99.90;;;;;;5054080;28;20199;-87
2023/07/10 21:24:19;;;;;;;14.98;4.60;;;19.00;99.90;;;;;;5037074;28;20675;-87
2023/07/10 21:26:51;;;;;;;7.28;4.20;;;19.00;99.90;;;;;;5053097;28;20237;-88
2023/07/10 21:29:17;;;;;;;10.00;4.95;;;18.90;99.90;;;;;;5054054;28;20176;-88
2023/07/10 21:31:43;;;;;;;9.73;4.30;;;18.90;99.90;;;;;;5052988;28;20180;-86
2023/07/10 21:34:11;;;;;;;5.43;3.47;;;18.90;99.90;;;;;;5052707;28;20298;-86
2023/07/10 21:36:37;;;;;;;7.38;4.03;;;18.90;99.90;;;;;;5052863;28;20172;-85
2023/07/10 21:39:03;;;;;;;8.43;4.40;;;18.80;99.90;;;;;;5054011;28;20255;-85
2023/07/10 21:41:34;;;;;;;10.10;4.53;;;18.80;99.90;;;;;;5052616;28;20297;-85
2023/07/10 21:44:04;;;;;;;8.20;5.13;;;19.00;99.90;;;;;;5052549;28;20305;-88
2023/07/10 21:46:31;;;;;;;7.57;4.80;;;19.00;99.90;;;;;;5052962;28;20206;-85
2023/07/10 21:48:58;;;;;;;8.20;4.20;;;19.00;99.90;;;;;;5053569;28;20184;-85
2023/07/10 21:51:25;;;;;;;10.18;4.82;;;18.80;99.90;;;;;;5052726;28;20659;-86
2023/07/10 21:53:51;;;;;;;6.93;4.28;;;18.60;99.90;;;;;;5053903;28;20183;-88
2023/07/10 21:56:18;;;;;;;10.48;4.45;;;18.50;99.90;;;;;;5035845;28;20184;-88
2023/07/10 21:58:46;;;;;;;12.07;4.68;;;18.40;99.90;;;;;;5057466;28;20187;-87
2023/07/10 22:01:14;;;;;;;9.82;4.70;;;18.40;99.90;;;;;;5056169;28;20212;-85
2023/07/10 22:03:39;;;;;;;7.10;4.38;;;18.40;99.90;;;;;;5053552;28;20259;-86
2023/07/10 22:06:07;;;;;;;7.90;4.22;;;18.60;99.90;;;;;;5053476;28;20699;-87
2023/07/10 22:08:35;;;;;;;7.65;4.45;;;18.70;99.90;;;;;;5052310;28;20208;-87
2023/07/10 22:11:02;;;;;;;9.77;4.53;;;18.80;99.90;;;;;;5051856;28;20180;-87
2023/07/10 22:13:33;;;;;;;10.55;4.35;;;18.80;99.90;;;;;;5053332;28;20176;-87
2023/07/10 22:16:03;;;;;;;12.98;4.60;;;18.80;99.90;;;;;;5051849;28;20184;-87
2023/07/10 22:18:34;;;;;;;7.68;4.80;;;18.80;99.90;;;;;;5053537;28;20246;-87
2023/07/10 22:21:02;;;;;;;7.53;4.25;;;18.70;99.90;;;;;;5053021;28;20639;-87
2023/07/10 22:23:30;;;;;;;6.43;4.20;;;18.70;99.90;;;;;;5052252;28;20176;-88
2023/07/10 22:25:58;;;;;;;10.95;4.15;;;18.70;99.90;;;;;;5052673;28;20183;-88
2023/07/10 22:28:26;;;;;;;9.13;4.93;;;18.70;99.90;;;;;;5054054;28;20176;-89
2023/07/10 22:30:58;;;;;;;12.35;5.00;;;18.70;99.90;;;;;;5053609;28;20614;-89
2023/07/10 22:33:25;;;;;;;8.52;4.63;;;18.70;99.90;;;;;;5054277;28;20221;-88
2023/07/10 22:35:52;;;;;;;7.30;4.47;;;18.60;99.90;;;;;;5036009;28;20184;-88
2023/07/10 22:38:19;;;;;;;9.70;4.47;;;18.60;99.90;;;;;;5052966;28;20180;-88
2023/07/10 22:40:48;;;;;;;9.18;3.90;;;18.60;99.90;;;;;;5053185;28;20168;-88
2023/07/10 22:43:24;;;;;;;7.28;4.38;;;18.80;99.90;;;;;;5053022;28;20175;-88
2023/07/10 22:45:49;;;;;;;9.10;4.80;;;18.80;99.90;;;;;;5052503;28;20274;-89
2023/07/10 22:48:15;;;;;;;10.32;4.45;;;18.70;99.90;;;;;;5053028;28;20278;-89
2023/07/10 22:50:43;;;;;;;6.05;3.78;;;18.70;99.90;;;;;;5052969;28;20172;-89
2023/07/10 22:53:10;;;;;;;8.55;4.63;;;18.60;99.90;;;;;;5051460;28;20199;-88
2023/07/10 22:55:36;;;;;;;10.10;4.93;;;18.50;99.90;;;;;;5052940;28;20184;-88
2023/07/10 22:58:03;;;;;;;10.95;5.13;;;18.40;99.90;;;;;;5052596;28;20172;-89
2023/07/10 23:00:32;;;;;;;8.13;4.28;;;18.30;99.90;;;;;;5051823;28;20176;-88
2023/07/10 23:02:59;;;;;;;6.95;4.35;;;18.20;99.90;;;;;;5051479;28;20294;-88
2023/07/10 23:05:28;;;;;;;7.93;4.30;;;18.20;99.90;;;;;;5053383;28;20171;-88
2023/07/10 23:07:53;;;;;;;6.57;4.43;;;18.30;99.90;;;;;;5053510;28;20206;-88
2023/07/10 23:10:21;;;;;;;8.65;4.22;;;18.50;99.90;;;;;;5053533;28;20187;-88
2023/07/10 23:12:47;;;;;;;8.15;4.65;;;18.70;99.90;;;;;;5035460;28;20188;-88
2023/07/10 23:15:14;;;;;;;8.57;4.45;;;18.70;99.90;;;;;;5053588;28;20207;-88
2023/07/10 23:17:41;;;;;;;7.88;4.25;;;18.70;99.90;;;;;;5052268;28;20275;-88
2023/07/10 23:20:13;;;;;;;9.57;4.85;;;18.80;99.90;;;;;;5051540;28;20640;-89
2023/07/10 23:22:39;;;;;;;7.45;4.43;;;18.80;99.90;;;;;;5051389;28;20249;-88
2023/07/10 23:25:09;;;;;;;9.40;4.85;;;18.80;99.90;;;;;;5052489;28;20270;-88
2023/07/10 23:27:35;;;;;;;10.20;4.78;;;18.90;99.90;;;;;;5052394;28;20178;-88
2023/07/10 23:30:01;;;;;;;6.97;4.13;;;18.90;99.90;;;;;;5054927;28;20179;-88
2023/07/10 23:32:31;;;;;;;5.35;3.58;;;18.90;99.90;;;;;;5038965;28;20223;-88
2023/07/10 23:34:57;;;;;;;5.10;4.20;;;19.00;99.90;;;;;;5055117;28;20260;-87
2023/07/10 23:37:22;;;;;;;6.57;3.95;;;19.10;99.90;;;;;;5054922;28;20176;-87
2023/07/10 23:39:48;;;;;;;5.70;3.45;;;19.10;99.90;;;;;;5057970;28;20180;-87
2023/07/10 23:42:14;;;;;;;7.55;3.60;;;19.10;99.90;;;;;;5059254;28;20231;-87
2023/07/10 23:44:39;;;;;;;7.03;3.67;;;19.00;99.90;;;;;;5073154;28;20667;-87
2023/07/10 23:47:05;;;;;;;5.85;4.45;;;18.90;99.90;;;;;;5055547;28;20191;-87
2023/07/10 23:49:31;;;;;;;8.35;4.10;;;18.90;99.90;;;;;;5056038;28;20210;-87
2023/07/10 23:51:56;;;;;;;6.10;3.83;;;18.90;99.90;;;;;;5057047;28;20190;-87
2023/07/10 23:54:22;;;;;;;7.72;3.90;;;18.90;99.90;;;;;;5056465;28;20172;-88
2023/07/10 23:56:47;;;;;;;6.50;3.80;;;18.80;99.90;;;;;;5055308;28;20664;-87
2023/07/10 23:59:13;;;;;;;7.60;3.97;;;18.80;99.90;;;;;;5054517;28;20176;-88
